sensor_id;sensor_type;location;lat;lon;timestamp;P1;P2;P0
73305;PMS5003;61530;51.158;0.880;2023-11-22T00:00:59;7;6;2
73305;PMS5003;61530;51.158;0.880;2023-11-22T00:02:00;3;3;2
73305;PMS5003;61530;51.158;0.880;2023-11-22T00:03:00;11;4;3
73305;PMS5003;61530;51.158;0.880;2023-11-22T00:04:00;9;7;2
73305;PMS5003;61530;51.158;0.880;2023-11-22T00:05:01;4;4;2
73305;PMS5003;61530;51.158;0.880;2023-11-22T00:06:02;6;5;3
73305;PMS5003;61530;51.158;0.880;2023-11-22T00:07:02;9;5;2
73305;PMS5003;61530;51.158;0.880;2023-11-22T00:08:03;6;5;3
73305;PMS5003;61530;51.158;0.880;2023-11-22T00:09:03;6;5;2
73305;PMS5003;61530;51.158;0.880;2023-11-22T00:10:04;5;3;1
73305;PMS5003;61530;51.158;0.880;2023-11-22T00:11:04;6;4;2
73305;PMS5003;61530;51.158;0.880;2023-11-22T00:12:05;6;3;1
73305;PMS5003;61530;51.158;0.880;2023-11-22T00:13:05;5;5;2
73305;PMS5003;61530;51.158;0.880;2023-11-22T00:14:06;4;4;1
73305;PMS5003;61530;51.158;0.880;2023-11-22T00:15:07;9;5;3
73305;PMS5003;61530;51.158;0.880;2023-11-22T00:16:10;9;9;3
73305;PMS5003;61530;51.158;0.880;2023-11-22T00:17:10;10;6;3
73305;PMS5003;61530;51.158;0.880;2023-11-22T00:18:11;3;3;2
73305;PMS5003;61530;51.158;0.880;2023-11-22T00:19:11;5;3;2
73305;PMS5003;61530;51.158;0.880;2023-11-22T00:20:11;6;4;3
73305;PMS5003;61530;51.158;0.880;2023-11-22T00:21:12;12;6;2
73305;PMS5003;61530;51.158;0.880;2023-11-22T00:22:13;7;5;2
73305;PMS5003;61530;51.158;0.880;2023-11-22T00:23:13;4;4;2
73305;PMS5003;61530;51.158;0.880;2023-11-22T00:24:14;10;5;2
73305;PMS5003;61530;51.158;0.880;2023-11-22T00:25:14;4;4;2
73305;PMS5003;61530;51.158;0.880;2023-11-22T00:26:15;3;3;1
73305;PMS5003;61530;51.158;0.880;2023-11-22T00:27:16;4;3;2
73305;PMS5003;61530;51.158;0.880;2023-11-22T00:28:16;6;4;2
73305;PMS5003;61530;51.158;0.880;2023-11-22T00:29:17;4;4;3
73305;PMS5003;61530;51.158;0.880;2023-11-22T00:30:17;7;7;3
73305;PMS5003;61530;51.158;0.880;2023-11-22T00:31:17;5;4;2
73305;PMS5003;61530;51.158;0.880;2023-11-22T00:32:18;4;4;2
73305;PMS5003;61530;51.158;0.880;2023-11-22T00:33:20;6;5;3
73305;PMS5003;61530;51.158;0.880;2023-11-22T00:34:21;5;4;2
73305;PMS5003;61530;51.158;0.880;2023-11-22T00:35:21;6;3;1
73305;PMS5003;61530;51.158;0.880;2023-11-22T00:36:22;5;4;2
73305;PMS5003;61530;51.158;0.880;2023-11-22T00:37:22;4;4;2
73305;PMS5003;61530;51.158;0.880;2023-11-22T00:38:23;7;6;3
73305;PMS5003;61530;51.158;0.880;2023-11-22T00:39:26;4;4;2
73305;PMS5003;61530;51.158;0.880;2023-11-22T00:40:26;6;4;3
73305;PMS5003;61530;51.158;0.880;2023-11-22T00:41:29;3;3;1
73305;PMS5003;61530;51.158;0.880;2023-11-22T00:42:27;4;4;1
73305;PMS5003;61530;51.158;0.880;2023-11-22T00:43:28;5;5;2
73305;PMS5003;61530;51.158;0.880;2023-11-22T00:44:28;9;5;3
73305;PMS5003;61530;51.158;0.880;2023-11-22T00:45:29;6;4;2
73305;PMS5003;61530;51.158;0.880;2023-11-22T00:46:29;5;5;3
73305;PMS5003;61530;51.158;0.880;2023-11-22T00:47:29;7;6;3
73305;PMS5003;61530;51.158;0.880;2023-11-22T00:48:30;7;6;3
73305;PMS5003;61530;51.158;0.880;2023-11-22T00:49:31;4;4;2
73305;PMS5003;61530;51.158;0.880;2023-11-22T00:50:31;5;3;2
73305;PMS5003;61530;51.158;0.880;2023-11-22T00:51:32;6;5;2
73305;PMS5003;61530;51.158;0.880;2023-11-22T00:52:32;9;4;2
73305;PMS5003;61530;51.158;0.880;2023-11-22T00:53:33;9;6;2
73305;PMS5003;61530;51.158;0.880;2023-11-22T00:54:33;6;4;2
73305;PMS5003;61530;51.158;0.880;2023-11-22T00:55:33;5;2;2
73305;PMS5003;61530;51.158;0.880;2023-11-22T00:56:34;5;5;3
73305;PMS5003;61530;51.158;0.880;2023-11-22T00:57:35;4;4;2
73305;PMS5003;61530;51.158;0.880;2023-11-22T00:58:35;3;3;1
73305;PMS5003;61530;51.158;0.880;2023-11-22T00:59:35;4;3;2
73305;PMS5003;61530;51.158;0.880;2023-11-22T01:00:36;3;2;1
73305;PMS5003;61530;51.158;0.880;2023-11-22T01:01:36;7;5;3
73305;PMS5003;61530;51.158;0.880;2023-11-22T01:02:37;4;4;2
73305;PMS5003;61530;51.158;0.880;2023-11-22T01:03:38;5;3;2
73305;PMS5003;61530;51.158;0.880;2023-11-22T01:04:40;2;2;1
73305;PMS5003;61530;51.158;0.880;2023-11-22T01:05:41;6;6;2
73305;PMS5003;61530;51.158;0.880;2023-11-22T01:06:41;6;5;2
73305;PMS5003;61530;51.158;0.880;2023-11-22T01:07:42;3;3;2
73305;PMS5003;61530;51.158;0.880;2023-11-22T01:08:44;4;3;2
73305;PMS5003;61530;51.158;0.880;2023-11-22T01:09:45;4;4;3
73305;PMS5003;61530;51.158;0.880;2023-11-22T01:10:45;3;3;2
73305;PMS5003;61530;51.158;0.880;2023-11-22T01:11:46;4;4;2
73305;PMS5003;61530;51.158;0.880;2023-11-22T01:12:46;4;4;2
73305;PMS5003;61530;51.158;0.880;2023-11-22T01:13:47;4;4;2
73305;PMS5003;61530;51.158;0.880;2023-11-22T01:14:47;7;4;2
73305;PMS5003;61530;51.158;0.880;2023-11-22T01:15:48;6;3;2
73305;PMS5003;61530;51.158;0.880;2023-11-22T01:16:48;7;5;2
73305;PMS5003;61530;51.158;0.880;2023-11-22T01:17:48;4;4;1
73305;PMS5003;61530;51.158;0.880;2023-11-22T01:18:49;7;5;4
73305;PMS5003;61530;51.158;0.880;2023-11-22T01:19:50;12;5;2
73305;PMS5003;61530;51.158;0.880;2023-11-22T01:20:50;6;4;2
73305;PMS5003;61530;51.158;0.880;2023-11-22T01:21:51;3;3;2
73305;PMS5003;61530;51.158;0.880;2023-11-22T01:22:51;3;3;2
73305;PMS5003;61530;51.158;0.880;2023-11-22T01:23:52;12;5;2
73305;PMS5003;61530;51.158;0.880;2023-11-22T01:24:52;9;6;2
73305;PMS5003;61530;51.158;0.880;2023-11-22T01:25:52;3;3;1
73305;PMS5003;61530;51.158;0.880;2023-11-22T01:26:53;5;4;2
73305;PMS5003;61530;51.158;0.880;2023-11-22T01:27:54;5;4;2
73305;PMS5003;61530;51.158;0.880;2023-11-22T01:28:54;6;3;2
73305;PMS5003;61530;51.158;0.880;2023-11-22T01:29:55;3;3;1
73305;PMS5003;61530;51.158;0.880;2023-11-22T01:30:55;4;4;1
73305;PMS5003;61530;51.158;0.880;2023-11-22T01:31:56;3;3;2
73305;PMS5003;61530;51.158;0.880;2023-11-22T01:32:56;6;6;3
73305;PMS5003;61530;51.158;0.880;2023-11-22T01:33:57;7;6;3
73305;PMS5003;61530;51.158;0.880;2023-11-22T01:34:57;4;3;1
73305;PMS5003;61530;51.158;0.880;2023-11-22T01:35:58;3;3;2
73305;PMS5003;61530;51.158;0.880;2023-11-22T01:36:58;3;3;1
73305;PMS5003;61530;51.158;0.880;2023-11-22T01:37:58;3;3;1
73305;PMS5003;61530;51.158;0.880;2023-11-22T01:38:59;6;3;2
73305;PMS5003;61530;51.158;0.880;2023-11-22T01:40:00;4;4;2
73305;PMS5003;61530;51.158;0.880;2023-11-22T01:41:02;3;3;1
73305;PMS5003;61530;51.158;0.880;2023-11-22T01:42:03;11;6;3
73305;PMS5003;61530;51.158;0.880;2023-11-22T01:43:03;5;4;2
73305;PMS5003;61530;51.158;0.880;2023-11-22T01:44:04;7;5;3
73305;PMS5003;61530;51.158;0.880;2023-11-22T01:45:04;5;5;2
73305;PMS5003;61530;51.158;0.880;2023-11-22T01:46:05;3;3;1
73305;PMS5003;61530;51.158;0.880;2023-11-22T01:47:05;5;3;2
73305;PMS5003;61530;51.158;0.880;2023-11-22T01:48:05;5;5;2
73305;PMS5003;61530;51.158;0.880;2023-11-22T01:49:08;5;3;1
73305;PMS5003;61530;51.158;0.880;2023-11-22T01:50:07;3;3;2
73305;PMS5003;61530;51.158;0.880;2023-11-22T01:51:07;5;5;2
73305;PMS5003;61530;51.158;0.880;2023-11-22T01:52:08;4;4;2
73305;PMS5003;61530;51.158;0.880;2023-11-22T01:53:08;6;3;2
73305;PMS5003;61530;51.158;0.880;2023-11-22T01:54:09;6;4;2
73305;PMS5003;61530;51.158;0.880;2023-11-22T01:55:09;4;4;2
73305;PMS5003;61530;51.158;0.880;2023-11-22T01:56:10;7;7;2
73305;PMS5003;61530;51.158;0.880;2023-11-22T01:57:10;4;4;1
73305;PMS5003;61530;51.158;0.880;2023-11-22T01:58:11;6;4;2
73305;PMS5003;61530;51.158;0.880;2023-11-22T01:59:11;5;4;3
73305;PMS5003;61530;51.158;0.880;2023-11-22T02:00:12;4;4;3
73305;PMS5003;61530;51.158;0.880;2023-11-22T02:01:12;4;3;2
73305;PMS5003;61530;51.158;0.880;2023-11-22T02:02:13;3;3;1
73305;PMS5003;61530;51.158;0.880;2023-11-22T02:03:13;4;4;2
73305;PMS5003;61530;51.158;0.880;2023-11-22T02:04:14;5;3;1
73305;PMS5003;61530;51.158;0.880;2023-11-22T02:05:14;4;2;1
73305;PMS5003;61530;51.158;0.880;2023-11-22T02:06:15;4;4;2
73305;PMS5003;61530;51.158;0.880;2023-11-22T02:07:15;5;3;2
73305;PMS5003;61530;51.158;0.880;2023-11-22T02:08:16;4;3;2
73305;PMS5003;61530;51.158;0.880;2023-11-22T02:09:16;8;6;2
73305;PMS5003;61530;51.158;0.880;2023-11-22T02:10:17;9;3;2
73305;PMS5003;61530;51.158;0.880;2023-11-22T02:11:17;3;3;2
73305;PMS5003;61530;51.158;0.880;2023-11-22T02:12:18;5;3;2
73305;PMS5003;61530;51.158;0.880;2023-11-22T02:13:18;4;4;2
73305;PMS5003;61530;51.158;0.880;2023-11-22T02:14:19;3;3;1
73305;PMS5003;61530;51.158;0.880;2023-11-22T02:15:19;8;4;2
73305;PMS5003;61530;51.158;0.880;2023-11-22T02:16:20;4;4;2
73305;PMS5003;61530;51.158;0.880;2023-11-22T02:17:20;3;3;2
73305;PMS5003;61530;51.158;0.880;2023-11-22T02:18:21;4;4;2
73305;PMS5003;61530;51.158;0.880;2023-11-22T02:19:21;3;3;2
73305;PMS5003;61530;51.158;0.880;2023-11-22T02:20:21;2;2;1
73305;PMS5003;61530;51.158;0.880;2023-11-22T02:21:22;3;3;2
73305;PMS5003;61530;51.158;0.880;2023-11-22T02:22:23;3;3;3
73305;PMS5003;61530;51.158;0.880;2023-11-22T02:23:23;5;3;2
73305;PMS5003;61530;51.158;0.880;2023-11-22T02:24:24;3;3;2
73305;PMS5003;61530;51.158;0.880;2023-11-22T02:25:24;3;3;1
73305;PMS5003;61530;51.158;0.880;2023-11-22T02:26:24;5;4;2
73305;PMS5003;61530;51.158;0.880;2023-11-22T02:27:25;3;3;1
73305;PMS5003;61530;51.158;0.880;2023-11-22T02:28:26;4;2;2
73305;PMS5003;61530;51.158;0.880;2023-11-22T02:29:26;4;3;2
73305;PMS5003;61530;51.158;0.880;2023-11-22T02:30:27;5;4;2
73305;PMS5003;61530;51.158;0.880;2023-11-22T02:31:27;4;4;2
73305;PMS5003;61530;51.158;0.880;2023-11-22T02:32:28;6;3;2
73305;PMS5003;61530;51.158;0.880;2023-11-22T02:33:28;8;6;3
73305;PMS5003;61530;51.158;0.880;2023-11-22T02:34:29;5;5;2
73305;PMS5003;61530;51.158;0.880;2023-11-22T02:35:29;5;4;3
73305;PMS5003;61530;51.158;0.880;2023-11-22T02:36:30;4;3;1
73305;PMS5003;61530;51.158;0.880;2023-11-22T02:37:30;4;4;2
73305;PMS5003;61530;51.158;0.880;2023-11-22T02:38:30;10;4;2
73305;PMS5003;61530;51.158;0.880;2023-11-22T02:39:33;8;5;2
73305;PMS5003;61530;51.158;0.880;2023-11-22T02:40:32;8;3;2
73305;PMS5003;61530;51.158;0.880;2023-11-22T02:41:32;4;4;2
73305;PMS5003;61530;51.158;0.880;2023-11-22T02:42:33;4;4;2
73305;PMS5003;61530;51.158;0.880;2023-11-22T02:43:33;8;4;2
73305;PMS5003;61530;51.158;0.880;2023-11-22T02:44:35;5;5;2
73305;PMS5003;61530;51.158;0.880;2023-11-22T02:45:35;6;4;2
73305;PMS5003;61530;51.158;0.880;2023-11-22T02:46:36;4;4;2
73305;PMS5003;61530;51.158;0.880;2023-11-22T02:47:36;3;3;2
73305;PMS5003;61530;51.158;0.880;2023-11-22T02:48:37;8;4;3
73305;PMS5003;61530;51.158;0.880;2023-11-22T02:49:37;12;4;2
73305;PMS5003;61530;51.158;0.880;2023-11-22T02:50:38;5;4;2
73305;PMS5003;61530;51.158;0.880;2023-11-22T02:51:38;4;4;2
73305;PMS5003;61530;51.158;0.880;2023-11-22T02:52:39;9;5;3
73305;PMS5003;61530;51.158;0.880;2023-11-22T02:53:39;6;5;2
73305;PMS5003;61530;51.158;0.880;2023-11-22T02:54:41;4;4;1
73305;PMS5003;61530;51.158;0.880;2023-11-22T02:55:40;3;3;2
73305;PMS5003;61530;51.158;0.880;2023-11-22T02:56:41;4;4;2
73305;PMS5003;61530;51.158;0.880;2023-11-22T02:57:41;8;4;2
73305;PMS5003;61530;51.158;0.880;2023-11-22T02:58:42;3;3;3
73305;PMS5003;61530;51.158;0.880;2023-11-22T02:59:42;3;3;2
73305;PMS5003;61530;51.158;0.880;2023-11-22T03:00:43;3;3;1
73305;PMS5003;61530;51.158;0.880;2023-11-22T03:01:43;5;4;2
73305;PMS5003;61530;51.158;0.880;2023-11-22T03:02:45;4;4;2
73305;PMS5003;61530;51.158;0.880;2023-11-22T03:03:44;5;4;3
73305;PMS5003;61530;51.158;0.880;2023-11-22T03:04:44;6;5;2
73305;PMS5003;61530;51.158;0.880;2023-11-22T03:05:45;4;4;2
73305;PMS5003;61530;51.158;0.880;2023-11-22T03:06:45;10;5;2
73305;PMS5003;61530;51.158;0.880;2023-11-22T03:07:46;6;4;2
73305;PMS5003;61530;51.158;0.880;2023-11-22T03:08:47;3;3;2
73305;PMS5003;61530;51.158;0.880;2023-11-22T03:09:47;5;4;2
73305;PMS5003;61530;51.158;0.880;2023-11-22T03:10:48;6;4;2
73305;PMS5003;61530;51.158;0.880;2023-11-22T03:11:49;10;6;2
73305;PMS5003;61530;51.158;0.880;2023-11-22T03:12:48;4;3;1
73305;PMS5003;61530;51.158;0.880;2023-11-22T03:13:49;6;4;3
73305;PMS5003;61530;51.158;0.880;2023-11-22T03:14:50;5;4;2
73305;PMS5003;61530;51.158;0.880;2023-11-22T03:15:50;4;4;3
73305;PMS5003;61530;51.158;0.880;2023-11-22T03:16:51;5;5;2
73305;PMS5003;61530;51.158;0.880;2023-11-22T03:17:51;6;6;3
73305;PMS5003;61530;51.158;0.880;2023-11-22T03:18:52;9;9;2
73305;PMS5003;61530;51.158;0.880;2023-11-22T03:19:52;3;3;2
73305;PMS5003;61530;51.158;0.880;2023-11-22T03:20:53;8;6;2
73305;PMS5003;61530;51.158;0.880;2023-11-22T03:21:56;5;4;2
73305;PMS5003;61530;51.158;0.880;2023-11-22T03:22:56;4;4;3
73305;PMS5003;61530;51.158;0.880;2023-11-22T03:23:56;6;4;1
73305;PMS5003;61530;51.158;0.880;2023-11-22T03:24:57;5;5;2
73305;PMS5003;61530;51.158;0.880;2023-11-22T03:25:57;4;4;3
73305;PMS5003;61530;51.158;0.880;2023-11-22T03:26:58;3;3;2
73305;PMS5003;61530;51.158;0.880;2023-11-22T03:27:59;6;3;2
73305;PMS5003;61530;51.158;0.880;2023-11-22T03:28:59;6;3;2
73305;PMS5003;61530;51.158;0.880;2023-11-22T03:30:00;6;4;3
73305;PMS5003;61530;51.158;0.880;2023-11-22T03:31:00;4;3;2
73305;PMS5003;61530;51.158;0.880;2023-11-22T03:32:01;4;3;2
73305;PMS5003;61530;51.158;0.880;2023-11-22T03:33:01;3;3;1
73305;PMS5003;61530;51.158;0.880;2023-11-22T03:34:02;6;5;2
73305;PMS5003;61530;51.158;0.880;2023-11-22T03:35:02;5;4;2
73305;PMS5003;61530;51.158;0.880;2023-11-22T03:36:03;6;6;2
73305;PMS5003;61530;51.158;0.880;2023-11-22T03:37:03;5;5;3
73305;PMS5003;61530;51.158;0.880;2023-11-22T03:38:04;4;4;3
73305;PMS5003;61530;51.158;0.880;2023-11-22T03:39:04;5;5;3
73305;PMS5003;61530;51.158;0.880;2023-11-22T03:40:05;3;3;2
73305;PMS5003;61530;51.158;0.880;2023-11-22T03:41:08;3;3;2
73305;PMS5003;61530;51.158;0.880;2023-11-22T03:42:08;8;5;3
73305;PMS5003;61530;51.158;0.880;2023-11-22T03:43:09;6;5;3
73305;PMS5003;61530;51.158;0.880;2023-11-22T03:44:09;4;4;2
73305;PMS5003;61530;51.158;0.880;2023-11-22T03:45:10;4;4;2
73305;PMS5003;61530;51.158;0.880;2023-11-22T03:46:10;6;6;3
73305;PMS5003;61530;51.158;0.880;2023-11-22T03:47:11;4;4;2
73305;PMS5003;61530;51.158;0.880;2023-11-22T03:48:11;4;4;2
73305;PMS5003;61530;51.158;0.880;2023-11-22T03:49:12;8;8;3
73305;PMS5003;61530;51.158;0.880;2023-11-22T03:50:12;6;6;3
73305;PMS5003;61530;51.158;0.880;2023-11-22T03:51:13;11;5;3
73305;PMS5003;61530;51.158;0.880;2023-11-22T03:52:13;5;5;3
73305;PMS5003;61530;51.158;0.880;2023-11-22T03:53:14;8;4;2
73305;PMS5003;61530;51.158;0.880;2023-11-22T03:54:14;5;5;3
73305;PMS5003;61530;51.158;0.880;2023-11-22T03:55:15;9;6;4
73305;PMS5003;61530;51.158;0.880;2023-11-22T03:56:15;8;4;2
73305;PMS5003;61530;51.158;0.880;2023-11-22T03:57:18;8;4;2
73305;PMS5003;61530;51.158;0.880;2023-11-22T03:58:18;6;4;2
73305;PMS5003;61530;51.158;0.880;2023-11-22T03:59:18;6;5;2
73305;PMS5003;61530;51.158;0.880;2023-11-22T04:00:19;8;4;2
73305;PMS5003;61530;51.158;0.880;2023-11-22T04:01:20;6;4;2
73305;PMS5003;61530;51.158;0.880;2023-11-22T04:02:20;4;4;2
73305;PMS5003;61530;51.158;0.880;2023-11-22T04:03:21;6;4;1
73305;PMS5003;61530;51.158;0.880;2023-11-22T04:04:21;4;3;2
73305;PMS5003;61530;51.158;0.880;2023-11-22T04:05:22;4;4;2
73305;PMS5003;61530;51.158;0.880;2023-11-22T04:06:22;6;4;3
73305;PMS5003;61530;51.158;0.880;2023-11-22T04:07:23;5;4;2
73305;PMS5003;61530;51.158;0.880;2023-11-22T04:08:23;6;5;3
73305;PMS5003;61530;51.158;0.880;2023-11-22T04:09:24;6;4;2
73305;PMS5003;61530;51.158;0.880;2023-11-22T04:10:24;3;3;2
73305;PMS5003;61530;51.158;0.880;2023-11-22T04:11:24;4;4;3
73305;PMS5003;61530;51.158;0.880;2023-11-22T04:12:25;10;5;2
73305;PMS5003;61530;51.158;0.880;2023-11-22T04:13:25;4;4;2
73305;PMS5003;61530;51.158;0.880;2023-11-22T04:14:28;5;4;3
73305;PMS5003;61530;51.158;0.880;2023-11-22T04:15:28;5;3;1
73305;PMS5003;61530;51.158;0.880;2023-11-22T04:16:28;4;3;3
73305;PMS5003;61530;51.158;0.880;2023-11-22T04:17:29;8;4;1
73305;PMS5003;61530;51.158;0.880;2023-11-22T04:18:29;4;2;2
73305;PMS5003;61530;51.158;0.880;2023-11-22T04:19:30;3;3;1
73305;PMS5003;61530;51.158;0.880;2023-11-22T04:20:31;4;3;1
73305;PMS5003;61530;51.158;0.880;2023-11-22T04:21:31;5;3;2
73305;PMS5003;61530;51.158;0.880;2023-11-22T04:22:32;5;5;3
73305;PMS5003;61530;51.158;0.880;2023-11-22T04:23:32;5;4;3
73305;PMS5003;61530;51.158;0.880;2023-11-22T04:24:32;3;3;1
73305;PMS5003;61530;51.158;0.880;2023-11-22T04:25:33;5;4;2
73305;PMS5003;61530;51.158;0.880;2023-11-22T04:26:34;9;6;3
73305;PMS5003;61530;51.158;0.880;2023-11-22T04:27:34;4;4;2
73305;PMS5003;61530;51.158;0.880;2023-11-22T04:28:35;6;4;2
73305;PMS5003;61530;51.158;0.880;2023-11-22T04:29:36;4;4;2
73305;PMS5003;61530;51.158;0.880;2023-11-22T04:30:36;4;3;2
73305;PMS5003;61530;51.158;0.880;2023-11-22T04:31:37;4;4;2
73305;PMS5003;61530;51.158;0.880;2023-11-22T04:32:39;6;3;2
73305;PMS5003;61530;51.158;0.880;2023-11-22T04:33:40;5;5;2
73305;PMS5003;61530;51.158;0.880;2023-11-22T04:34:40;8;5;3
73305;PMS5003;61530;51.158;0.880;2023-11-22T04:35:40;3;3;2
73305;PMS5003;61530;51.158;0.880;2023-11-22T04:36:41;4;4;3
73305;PMS5003;61530;51.158;0.880;2023-11-22T04:37:41;5;4;2
73305;PMS5003;61530;51.158;0.880;2023-11-22T04:38:42;5;5;2
73305;PMS5003;61530;51.158;0.880;2023-11-22T04:39:43;5;5;2
73305;PMS5003;61530;51.158;0.880;2023-11-22T04:40:43;9;5;3
73305;PMS5003;61530;51.158;0.880;2023-11-22T04:41:43;3;3;2
73305;PMS5003;61530;51.158;0.880;2023-11-22T04:42:44;4;3;2
73305;PMS5003;61530;51.158;0.880;2023-11-22T04:43:45;4;4;2
73305;PMS5003;61530;51.158;0.880;2023-11-22T04:44:45;5;5;3
73305;PMS5003;61530;51.158;0.880;2023-11-22T04:45:47;6;4;3
73305;PMS5003;61530;51.158;0.880;2023-11-22T04:46:48;6;5;2
73305;PMS5003;61530;51.158;0.880;2023-11-22T04:47:48;6;6;3
73305;PMS5003;61530;51.158;0.880;2023-11-22T04:48:49;5;3;3
73305;PMS5003;61530;51.158;0.880;2023-11-22T04:49:49;8;6;3
73305;PMS5003;61530;51.158;0.880;2023-11-22T04:50:50;6;6;5
73305;PMS5003;61530;51.158;0.880;2023-11-22T04:51:50;10;5;2
73305;PMS5003;61530;51.158;0.880;2023-11-22T04:52:51;9;5;3
73305;PMS5003;61530;51.158;0.880;2023-11-22T04:53:51;6;4;2
73305;PMS5003;61530;51.158;0.880;2023-11-22T04:54:51;8;6;4
73305;PMS5003;61530;51.158;0.880;2023-11-22T04:55:52;5;4;2
73305;PMS5003;61530;51.158;0.880;2023-11-22T04:56:53;9;5;2
73305;PMS5003;61530;51.158;0.880;2023-11-22T04:57:53;10;4;3
73305;PMS5003;61530;51.158;0.880;2023-11-22T04:58:54;9;5;2
73305;PMS5003;61530;51.158;0.880;2023-11-22T04:59:54;5;5;4
73305;PMS5003;61530;51.158;0.880;2023-11-22T05:00:54;4;4;3
73305;PMS5003;61530;51.158;0.880;2023-11-22T05:01:55;5;4;2
73305;PMS5003;61530;51.158;0.880;2023-11-22T05:02:56;8;4;3
73305;PMS5003;61530;51.158;0.880;2023-11-22T05:03:56;5;4;2
73305;PMS5003;61530;51.158;0.880;2023-11-22T05:04:57;4;4;2
73305;PMS5003;61530;51.158;0.880;2023-11-22T05:05:57;8;5;2
73305;PMS5003;61530;51.158;0.880;2023-11-22T05:06:58;11;5;2
73305;PMS5003;61530;51.158;0.880;2023-11-22T05:07:58;4;4;3
73305;PMS5003;61530;51.158;0.880;2023-11-22T05:08:59;4;4;3
73305;PMS5003;61530;51.158;0.880;2023-11-22T05:09:59;5;4;2
73305;PMS5003;61530;51.158;0.880;2023-11-22T05:11:00;4;4;3
73305;PMS5003;61530;51.158;0.880;2023-11-22T05:12:00;3;3;2
73305;PMS5003;61530;51.158;0.880;2023-11-22T05:13:00;9;9;3
73305;PMS5003;61530;51.158;0.880;2023-11-22T05:14:01;4;4;3
73305;PMS5003;61530;51.158;0.880;2023-11-22T05:15:02;4;4;3
73305;PMS5003;61530;51.158;0.880;2023-11-22T05:16:02;4;4;2
73305;PMS5003;61530;51.158;0.880;2023-11-22T05:17:03;8;6;3
73305;PMS5003;61530;51.158;0.880;2023-11-22T05:18:03;6;3;2
73305;PMS5003;61530;51.158;0.880;2023-11-22T05:19:04;6;6;4
73305;PMS5003;61530;51.158;0.880;2023-11-22T05:20:05;5;5;4
73305;PMS5003;61530;51.158;0.880;2023-11-22T05:21:04;9;5;3
73305;PMS5003;61530;51.158;0.880;2023-11-22T05:22:05;10;6;4
73305;PMS5003;61530;51.158;0.880;2023-11-22T05:23:06;8;8;5
73305;PMS5003;61530;51.158;0.880;2023-11-22T05:24:07;8;8;5
73305;PMS5003;61530;51.158;0.880;2023-11-22T05:25:07;8;8;5
73305;PMS5003;61530;51.158;0.880;2023-11-22T05:26:07;8;8;5
73305;PMS5003;61530;51.158;0.880;2023-11-22T05:27:08;10;6;4
73305;PMS5003;61530;51.158;0.880;2023-11-22T05:28:08;12;9;5
73305;PMS5003;61530;51.158;0.880;2023-11-22T05:29:09;9;8;5
73305;PMS5003;61530;51.158;0.880;2023-11-22T05:30:09;8;8;5
73305;PMS5003;61530;51.158;0.880;2023-11-22T05:31:10;10;10;6
73305;PMS5003;61530;51.158;0.880;2023-11-22T05:32:10;9;8;5
73305;PMS5003;61530;51.158;0.880;2023-11-22T05:33:10;8;8;5
73305;PMS5003;61530;51.158;0.880;2023-11-22T05:34:11;10;6;5
73305;PMS5003;61530;51.158;0.880;2023-11-22T05:35:13;8;6;4
73305;PMS5003;61530;51.158;0.880;2023-11-22T05:36:14;9;9;6
73305;PMS5003;61530;51.158;0.880;2023-11-22T05:37:14;10;9;6
73305;PMS5003;61530;51.158;0.880;2023-11-22T05:38:15;10;6;5
73305;PMS5003;61530;51.158;0.880;2023-11-22T05:39:15;9;9;6
73305;PMS5003;61530;51.158;0.880;2023-11-22T05:40:16;11;9;5
73305;PMS5003;61530;51.158;0.880;2023-11-22T05:41:16;11;10;6
73305;PMS5003;61530;51.158;0.880;2023-11-22T05:42:16;8;8;5
73305;PMS5003;61530;51.158;0.880;2023-11-22T05:43:17;8;8;5
73305;PMS5003;61530;51.158;0.880;2023-11-22T05:44:17;8;8;5
73305;PMS5003;61530;51.158;0.880;2023-11-22T05:45:18;10;9;6
73305;PMS5003;61530;51.158;0.880;2023-11-22T05:46:19;10;5;4
73305;PMS5003;61530;51.158;0.880;2023-11-22T05:47:19;9;9;5
73305;PMS5003;61530;51.158;0.880;2023-11-22T05:48:20;8;8;5
73305;PMS5003;61530;51.158;0.880;2023-11-22T05:49:20;8;8;6
73305;PMS5003;61530;51.158;0.880;2023-11-22T05:50:20;12;8;5
73305;PMS5003;61530;51.158;0.880;2023-11-22T05:51:21;10;10;6
73305;PMS5003;61530;51.158;0.880;2023-11-22T05:52:21;12;11;9
73305;PMS5003;61530;51.158;0.880;2023-11-22T05:53:22;9;8;5
73305;PMS5003;61530;51.158;0.880;2023-11-22T05:54:23;10;10;8
73305;PMS5003;61530;51.158;0.880;2023-11-22T05:55:23;13;11;9
73305;PMS5003;61530;51.158;0.880;2023-11-22T05:56:24;17;13;10
73305;PMS5003;61530;51.158;0.880;2023-11-22T05:57:24;17;14;11
73305;PMS5003;61530;51.158;0.880;2023-11-22T05:58:24;17;16;11
73305;PMS5003;61530;51.158;0.880;2023-11-22T05:59:25;17;16;13
73305;PMS5003;61530;51.158;0.880;2023-11-22T06:00:26;19;15;12
73305;PMS5003;61530;51.158;0.880;2023-11-22T06:01:26;19;18;15
73305;PMS5003;61530;51.158;0.880;2023-11-22T06:02:27;22;20;17
73305;PMS5003;61530;51.158;0.880;2023-11-22T06:03:27;24;18;17
73305;PMS5003;61530;51.158;0.880;2023-11-22T06:04:27;19;19;18
73305;PMS5003;61530;51.158;0.880;2023-11-22T06:05:28;20;20;18
73305;PMS5003;61530;51.158;0.880;2023-11-22T06:06:29;18;18;17
73305;PMS5003;61530;51.158;0.880;2023-11-22T06:07:29;19;18;16
73305;PMS5003;61530;51.158;0.880;2023-11-22T06:08:30;16;16;12
73305;PMS5003;61530;51.158;0.880;2023-11-22T06:09:30;22;18;16
73305;PMS5003;61530;51.158;0.880;2023-11-22T06:10:30;16;15;12
73305;PMS5003;61530;51.158;0.880;2023-11-22T06:11:31;12;11;7
73305;PMS5003;61530;51.158;0.880;2023-11-22T06:12:32;18;12;9
73305;PMS5003;61530;51.158;0.880;2023-11-22T06:13:32;16;12;10
73305;PMS5003;61530;51.158;0.880;2023-11-22T06:14:33;16;16;12
73305;PMS5003;61530;51.158;0.880;2023-11-22T06:15:33;18;18;16
73305;PMS5003;61530;51.158;0.880;2023-11-22T06:16:33;22;22;16
73305;PMS5003;61530;51.158;0.880;2023-11-22T06:17:34;7;7;4
73305;PMS5003;61530;51.158;0.880;2023-11-22T06:18:35;17;16;11
73305;PMS5003;61530;51.158;0.880;2023-11-22T06:19:35;16;16;14
73305;PMS5003;61530;51.158;0.880;2023-11-22T06:20:36;23;22;19
73305;PMS5003;61530;51.158;0.880;2023-11-22T06:21:36;30;30;26
73305;PMS5003;61530;51.158;0.880;2023-11-22T06:22:37;38;38;35
73305;PMS5003;61530;51.158;0.880;2023-11-22T06:23:37;45;45;42
73305;PMS5003;61530;51.158;0.880;2023-11-22T06:24:37;14;14;9
73305;PMS5003;61530;51.158;0.880;2023-11-22T06:25:38;33;30;26
73305;PMS5003;61530;51.158;0.880;2023-11-22T06:26:39;43;43;39
73305;PMS5003;61530;51.158;0.880;2023-11-22T06:27:39;53;53;49
73305;PMS5003;61530;51.158;0.880;2023-11-22T06:28:40;19;16;11
73305;PMS5003;61530;51.158;0.880;2023-11-22T06:29:40;28;28;25
73305;PMS5003;61530;51.158;0.880;2023-11-22T06:30:41;43;40;38
73305;PMS5003;61530;51.158;0.880;2023-11-22T06:31:41;46;46;45
73305;PMS5003;61530;51.158;0.880;2023-11-22T06:32:42;51;51;47
73305;PMS5003;61530;51.158;0.880;2023-11-22T06:33:42;51;50;46
73305;PMS5003;61530;51.158;0.880;2023-11-22T06:34:42;17;17;15
73305;PMS5003;61530;51.158;0.880;2023-11-22T06:35:43;44;39;37
73305;PMS5003;61530;51.158;0.880;2023-11-22T06:36:44;21;21;14
73305;PMS5003;61530;51.158;0.880;2023-11-22T06:37:44;49;46;33
73305;PMS5003;61530;51.158;0.880;2023-11-22T06:38:45;36;31;22
73305;PMS5003;61530;51.158;0.880;2023-11-22T06:39:46;17;16;11
73305;PMS5003;61530;51.158;0.880;2023-11-22T06:40:47;39;36;33
73305;PMS5003;61530;51.158;0.880;2023-11-22T06:41:47;74;73;69
73305;PMS5003;61530;51.158;0.880;2023-11-22T06:42:48;26;26;23
73305;PMS5003;61530;51.158;0.880;2023-11-22T06:43:48;81;81;78
73305;PMS5003;61530;51.158;0.880;2023-11-22T06:44:48;24;24;21
73305;PMS5003;61530;51.158;0.880;2023-11-22T06:45:49;8;8;4